Shawnee, Ohio
Current Conditions -  °F | °C
As of 11:10 AM on Thursday 23 Oct 2014 (Local Time) from KLHQ Reporting Station
Scattered Clouds Scattered Clouds  
Wind Chill: 48°   Ceiling: Unl
Heat Index: 48°   Visibility: 8mi
Dew Point: 42°   Wind: 0mph
Humidity: 80%   Direction: NA
Pressure: 30.25"   Gusts: NA
Location:  39.6°N, 82.21°W
Report Text: KLHQ 231510Z AUTO 00000KT 8SM SCT010 09/06 A3025 RMK AO2 T00890056
Loading
Personal Weather Stations






























Interactive Weather Map
Tropical Storm Tracking
New forecast layout! Learn more

10-Day Weather Forecast

Advertisements
Track Severe Weather on mobile